Time;durP1;ratioP1;P1;durP2;ratioP2;P2;SDS_P1;SDS_P2;PMS_P1;PMS_P2;Temp;Humidity;BMP_temperature;BMP_pressure;BME280_temperature;BME280_humidity;BME280_pressure;Samples;Min_cycle;Max_cycle;Signal;HPM_P1;HPM_P2
2020/12/02 00:00:31;;;;;;;325.67;116.53;;;;;;;-3.15;78.12;99368.11;3788567;78;20987;-74
2020/12/02 00:05:35;;;;;;;306.03;115.27;;;;;;;-3.14;78.06;99374.16;3788680;78;21458;-74
2020/12/02 00:10:38;;;;;;;312.80;113.37;;;;;;;-3.13;78.15;99370.03;3758844;78;21007;-73
2020/12/02 00:15:40;;;;;;;323.17;112.23;;;;;;;-3.11;77.86;99372.47;3788531;78;20971;-73
2020/12/02 00:20:42;;;;;;;303.03;110.07;;;;;;;-3.12;77.93;99369.53;3788398;78;20988;-73
2020/12/02 00:25:45;;;;;;;335.70;123.47;;;;;;;-3.10;78.15;99372.28;3788608;78;20983;-73
2020/12/02 00:30:47;;;;;;;323.77;114.00;;;;;;;-3.10;77.95;99373.59;3788420;78;20951;-74
2020/12/02 00:35:51;;;;;;;272.07;100.03;;;;;;;-3.13;77.90;99381.03;3788591;78;20979;-73
2020/12/02 00:40:54;;;;;;;259.40;93.07;;;;;;;-3.16;77.83;99374.82;3788551;78;20951;-73
2020/12/02 00:46:00;;;;;;;183.00;68.47;;;;;;;-3.23;77.69;99371.31;3788316;77;20990;-73
2020/12/02 00:51:06;;;;;;;225.60;85.00;;;;;;;-3.29;77.67;99379.41;3788500;78;21286;-73
2020/12/02 00:56:11;;;;;;;221.53;83.70;;;;;;;-3.44;77.38;99372.91;3787185;78;21002;-72
2020/12/02 01:01:30;;;;;;;205.27;78.40;;;;;;;-3.59;77.37;99376.83;3787225;78;21514;-72
2020/12/02 01:06:48;;;;;;;271.70;98.10;;;;;;;-3.65;77.58;99363.13;3904097;76;22673;-72
2020/12/02 01:11:54;;;;;;;214.27;77.60;;;;;;;-3.75;77.72;99366.53;3760101;78;20944;-72
2020/12/02 01:16:59;;;;;;;279.40;102.37;;;;;;;-3.81;77.93;99371.48;3697208;80;20972;-72
2020/12/02 01:22:30;;;;;;;269.87;97.83;;;;;;;-3.88;78.04;99376.33;3762944;78;21004;-72
2020/12/02 01:27:54;;;;;;;242.57;89.70;;;;;;;-3.97;77.92;99369.86;3762968;78;21443;-72
2020/12/02 01:32:56;;;;;;;278.00;100.03;;;;;;;-4.02;78.19;99368.77;3697154;80;21036;-74
2020/12/02 01:38:05;;;;;;;266.33;97.80;;;;;;;-4.08;78.17;99376.05;3762551;79;21036;-73
2020/12/02 01:43:11;;;;;;;277.03;100.07;;;;;;;-4.12;78.26;99369.83;3721798;79;21077;-73
2020/12/02 01:48:33;;;;;;;277.67;98.10;;;;;;;-4.15;78.43;99370.70;3645281;81;20976;-73
2020/12/02 01:53:52;;;;;;;285.10;101.00;;;;;;;-4.17;78.55;99368.74;3644956;81;21044;-73
2020/12/02 01:59:18;;;;;;;276.02;101.33;;;;;;;-4.21;78.56;99363.07;3770428;78;21019;-73
2020/12/02 02:04:26;;;;;;;269.70;99.70;;;;;;;-4.25;78.56;99360.48;3775882;78;20984;-73
2020/12/02 02:09:29;;;;;;;269.63;100.37;;;;;;;-4.23;78.87;99364.23;3782214;78;20972;-73
2020/12/02 02:14:43;;;;;;;248.67;92.03;;;;;;;-4.20;78.92;99357.33;3782033;78;20995;-73
2020/12/02 02:19:45;;;;;;;249.23;91.90;;;;;;;-4.18;79.11;99360.59;3780452;78;20980;-73
2020/12/02 02:24:49;;;;;;;221.30;81.60;;;;;;;-4.06;79.57;99358.34;3700304;80;21040;-72
2020/12/02 02:29:52;;;;;;;194.37;73.40;;;;;;;-4.04;79.26;99353.25;3632622;81;21451;-73
2020/12/02 02:34:58;;;;;;;162.90;63.50;;;;;;;-3.97;79.37;99363.32;3679710;80;21013;-73
2020/12/02 02:40:01;;;;;;;207.53;75.87;;;;;;;-4.02;78.85;99360.41;3700580;80;20957;-73
2020/12/02 02:45:09;;;;;;;184.70;71.93;;;;;;;-4.13;78.67;99351.22;3717793;79;21470;-73
2020/12/02 02:50:17;;;;;;;195.97;73.93;;;;;;;-4.21;78.58;99353.91;3690328;79;21021;-73
2020/12/02 02:55:24;;;;;;;196.00;75.73;;;;;;;-4.27;78.66;99349.88;3690047;80;21338;-72
2020/12/02 03:00:30;;;;;;;212.27;80.97;;;;;;;-4.34;78.64;99345.84;3702884;79;20977;-72
2020/12/02 03:05:33;;;;;;;203.67;79.13;;;;;;;-4.38;78.86;99344.09;3745080;79;20921;-72
2020/12/02 03:10:40;;;;;;;189.33;75.87;;;;;;;-4.40;79.01;99347.37;3745231;79;20949;-72
2020/12/02 03:15:42;;;;;;;197.50;75.77;;;;;;;-4.34;79.30;99355.00;3745406;79;20981;-72
2020/12/02 03:20:50;;;;;;;158.87;62.97;;;;;;;-4.36;79.07;99349.14;3716821;79;20941;-72
2020/12/02 03:25:53;;;;;;;158.73;64.07;;;;;;;-4.41;79.06;99343.63;3745326;79;20945;-72
2020/12/02 03:31:01;;;;;;;153.43;61.77;;;;;;;-4.48;79.09;99346.95;3745125;79;21055;-73
2020/12/02 03:36:04;;;;;;;150.37;60.53;;;;;;;-4.46;79.26;99346.78;3720631;79;20987;-72
2020/12/02 03:41:07;;;;;;;154.00;60.20;;;;;;;-4.51;79.10;99353.82;3720500;79;21055;-72
2020/12/02 03:46:09;;;;;;;149.07;60.73;;;;;;;-4.54;79.11;99345.53;3667695;79;20984;-72
2020/12/02 03:51:11;;;;;;;170.83;63.80;;;;;;;-4.63;79.01;99359.17;3661528;81;21523;-73
2020/12/02 03:56:14;;;;;;;147.27;61.30;;;;;;;-4.66;79.14;99360.33;3661649;80;21000;-73
2020/12/02 04:01:18;;;;;;;157.93;65.33;;;;;;;-4.70;79.16;99349.91;3727123;78;21000;-73
2020/12/02 04:06:20;;;;;;;153.87;64.40;;;;;;;-4.71;79.42;99344.34;3767041;78;21032;-73
2020/12/02 04:11:22;;;;;;;152.97;63.70;;;;;;;-4.68;79.62;99343.19;3767058;78;20972;-73
2020/12/02 04:16:24;;;;;;;155.07;60.43;;;;;;;-4.68;79.37;99336.65;3766908;78;21028;-72
2020/12/02 04:21:26;;;;;;;150.63;59.27;;;;;;;-4.71;79.34;99346.16;3767120;78;20977;-73
2020/12/02 04:26:28;;;;;;;145.30;60.33;;;;;;;-4.75;79.20;99343.57;3766950;78;21059;-73
2020/12/02 04:31:31;;;;;;;157.10;62.57;;;;;;;-4.81;79.11;99341.16;3767009;78;21031;-73
2020/12/02 04:36:33;;;;;;;150.67;62.27;;;;;;;-4.86;79.16;99347.40;3766945;78;20996;-73
2020/12/02 04:41:35;;;;;;;155.27;61.90;;;;;;;-4.91;79.08;99352.32;3767029;78;20984;-74
2020/12/02 04:46:38;;;;;;;135.40;56.77;;;;;;;-4.96;78.98;99350.73;3767080;78;20988;-74
2020/12/02 04:51:41;;;;;;;120.27;54.00;;;;;;;-5.01;79.08;99357.77;3766871;78;20999;-73
2020/12/02 04:56:46;;;;;;;114.97;51.67;;;;;;;-5.07;79.00;99365.81;3767017;77;21099;-73
2020/12/02 05:01:54;;;;;;;153.40;65.90;;;;;;;-5.11;79.12;99360.61;3767070;78;20986;-73
2020/12/02 05:07:15;;;;;;;111.83;49.73;;;;;;;-5.17;78.99;99362.11;3757257;78;21000;-71
2020/12/02 05:12:31;;;;;;;138.37;54.63;;;;;;;-5.20;79.18;99368.98;3754646;79;21000;-72
2020/12/02 05:17:33;;;;;;;176.50;73.00;;;;;;;-5.23;79.13;99370.64;3754477;79;21000;-72
2020/12/02 05:22:40;;;;;;;140.63;59.43;;;;;;;-5.23;79.37;99367.20;3754340;79;21076;-72
2020/12/02 05:27:49;;;;;;;138.87;58.67;;;;;;;-5.25;79.38;99367.87;3746988;79;20977;-73
2020/12/02 05:33:15;;;;;;;161.53;67.43;;;;;;;-5.25;79.58;99360.84;3791233;77;20973;-72
2020/12/02 05:38:28;;;;;;;145.97;62.60;;;;;;;-5.27;79.46;99358.91;3798007;77;21030;-73
2020/12/02 05:43:35;;;;;;;137.33;57.50;;;;;;;-5.26;79.54;99361.02;3768857;78;21410;-73
2020/12/02 05:48:42;;;;;;;164.07;64.10;;;;;;;-5.26;79.70;99359.70;3768002;77;20992;-73
2020/12/02 05:54:01;;;;;;;126.37;53.27;;;;;;;-5.23;79.78;99360.66;3767961;78;21012;-73
2020/12/02 05:59:06;;;;;;;145.70;57.50;;;;;;;-5.27;79.67;99366.74;3774633;78;20991;-74
2020/12/02 06:04:11;;;;;;;124.10;52.87;;;;;;;-5.30;79.63;99351.89;3797510;77;21015;-73
2020/12/02 06:09:14;;;;;;;124.80;51.80;;;;;;;-5.37;79.51;99356.50;3787754;77;21007;-73
2020/12/02 06:14:33;;;;;;;139.17;56.37;;;;;;;-5.39;79.56;99357.66;3776550;77;21034;-73
2020/12/02 06:19:50;;;;;;;139.20;59.70;;;;;;;-5.41;79.61;99359.13;3753821;77;20981;-73
2020/12/02 06:24:52;;;;;;;132.60;55.73;;;;;;;-5.49;79.38;99353.94;3658554;80;21441;-73
2020/12/02 06:30:14;;;;;;;138.37;59.97;;;;;;;-5.52;79.45;99359.51;3667743;80;21434;-73
2020/12/02 06:35:19;;;;;;;127.97;53.53;;;;;;;-5.51;79.42;99367.17;3640926;81;21059;-72
2020/12/02 06:40:24;;;;;;;134.03;56.10;;;;;;;-5.53;79.36;99365.20;3691335;80;21480;-73
2020/12/02 06:45:35;;;;;;;128.87;56.57;;;;;;;-5.56;79.51;99366.86;3638611;80;21000;-74
2020/12/02 06:50:38;;;;;;;100.40;41.63;;;;;;;-5.58;79.44;99366.69;3688276;80;20969;-73
2020/12/02 06:55:41;;;;;;;117.07;47.57;;;;;;;-5.60;79.33;99373.89;3702338;80;21056;-73
2020/12/02 07:00:52;;;;;;;124.73;49.80;;;;;;;-5.60;79.47;99363.45;3634680;81;21028;-73
2020/12/02 07:06:27;;;;;;;136.87;55.40;;;;;;;-5.61;79.44;99364.42;3673032;79;21092;-71
2020/12/02 07:11:32;;;;;;;109.73;43.03;;;;;;;-5.58;79.53;99366.22;3677074;79;21396;-75
2020/12/02 07:16:35;;;;;;;126.83;48.53;;;;;;;-5.61;79.34;99371.79;3784294;76;21014;-75
2020/12/02 07:21:42;;;;;;;135.27;54.27;;;;;;;-5.62;79.50;99362.79;3649167;79;20993;-75
2020/12/02 07:26:45;;;;;;;111.23;46.10;;;;;;;-5.59;79.58;99365.89;3805639;76;20993;-76
2020/12/02 07:32:02;;;;;;;124.17;51.53;;;;;;;-5.55;79.81;99365.88;3784938;77;20996;-75
2020/12/02 07:37:11;;;;;;;104.47;42.87;;;;;;;-5.47;79.79;99362.44;3788623;77;21036;-75
2020/12/02 07:42:25;;;;;;;92.43;40.83;;;;;;;-5.38;79.90;99364.52;3811020;77;21000;-76
2020/12/02 07:47:29;;;;;;;110.30;49.60;;;;;;;-5.23;79.84;99380.25;3744737;77;21058;-76
2020/12/02 07:52:40;;;;;;;115.27;46.97;;;;;;;-5.07;79.97;99374.95;3792394;76;20947;-76
2020/12/02 07:57:48;;;;;;;108.43;44.63;;;;;;;-4.89;80.10;99364.73;3784056;77;21008;-77
2020/12/02 08:02:50;;;;;;;99.47;43.27;;;;;;;-4.75;79.91;99363.98;3659001;79;21052;-76
2020/12/02 08:08:02;;;;;;;95.97;40.97;;;;;;;-4.65;79.78;99355.40;3807859;77;21051;-76
2020/12/02 08:13:19;;;;;;;92.47;41.40;;;;;;;-4.61;79.56;99353.77;3716264;79;21024;-76
2020/12/02 08:18:26;;;;;;;107.53;45.07;;;;;;;-4.65;79.51;99368.98;3676949;79;21485;-75
2020/12/02 08:23:32;;;;;;;118.30;50.23;;;;;;;-4.61;79.62;99359.80;3702402;79;21056;-77
2020/12/02 08:28:40;;;;;;;99.33;41.83;;;;;;;-4.55;79.90;99368.23;3685904;79;21008;-77
2020/12/02 08:34:13;;;;;;;84.03;34.40;;;;;;;-4.44;79.77;99370.94;3709143;77;20965;-77
2020/12/02 08:39:29;;;;;;;94.07;38.53;;;;;;;-4.43;79.52;99377.00;3709077;79;21456;-75
2020/12/02 08:44:32;;;;;;;88.97;40.97;;;;;;;-4.45;79.42;99379.77;3694099;79;21451;-75
2020/12/02 08:49:36;;;;;;;83.87;34.70;;;;;;;-4.42;79.58;99379.91;3711765;79;21535;-75
2020/12/02 08:54:38;;;;;;;87.10;36.80;;;;;;;-4.36;79.50;99377.92;3721630;79;20987;-78
2020/12/02 08:59:40;;;;;;;91.83;40.67;;;;;;;-4.31;79.59;99379.02;3713377;79;21032;-76
2020/12/02 09:04:46;;;;;;;76.03;33.47;;;;;;;-4.21;79.41;99371.39;3693382;78;20945;-77
2020/12/02 09:09:47;;;;;;;76.60;35.53;;;;;;;-4.19;79.13;99361.58;3783354;77;20975;-77
2020/12/02 09:14:49;;;;;;;72.30;28.73;;;;;;;-4.13;79.36;99364.30;3792576;76;21531;-75
2020/12/02 09:19:52;;;;;;;64.43;27.07;;;;;;;-4.02;79.30;99364.34;3777828;77;21024;-75
2020/12/02 09:24:54;;;;;;;52.97;22.33;;;;;;;-3.99;79.07;99369.24;3804468;77;21021;-75
2020/12/02 09:29:55;;;;;;;48.70;21.83;;;;;;;-3.93;79.29;99366.88;3777364;76;21441;-76
2020/12/02 09:34:58;;;;;;;65.73;27.27;;;;;;;-3.88;79.19;99362.73;3797121;77;21024;-76
2020/12/02 09:40:04;;;;;;;51.67;23.60;;;;;;;-3.78;79.20;99363.77;3816601;77;21285;-78
2020/12/02 09:45:31;;;;;;;47.30;19.23;;;;;;;-3.70;79.21;99344.55;3810961;77;21428;-76
2020/12/02 09:50:33;;;;;;;62.50;25.47;;;;;;;-3.64;79.25;99343.34;3733301;79;21060;-76
2020/12/02 09:55:35;;;;;;;46.67;20.60;;;;;;;-3.49;79.52;99331.52;3663998;79;21032;-76
2020/12/02 10:00:37;;;;;;;53.63;21.87;;;;;;;-3.39;79.30;99323.88;3745287;79;21039;-76
2020/12/02 10:06:05;;;;;;;56.63;24.77;;;;;;;-3.32;79.31;99322.94;3797627;77;20939;-77
2020/12/02 10:11:42;;;;;;;53.27;24.73;;;;;;;-3.22;79.40;99317.41;3807328;77;20965;-77
2020/12/02 10:17:13;;;;;;;55.67;23.43;;;;;;;-3.06;79.36;99306.38;3821666;77;21015;-77
2020/12/02 10:22:40;;;;;;;58.57;26.67;;;;;;;-2.94;79.25;99308.34;3626275;79;21034;-76
2020/12/02 10:27:51;;;;;;;51.50;22.87;;;;;;;-2.82;79.15;99307.33;3794070;76;21509;-75
2020/12/02 10:33:19;;;;;;;42.20;18.93;;;;;;;-2.67;79.20;99303.33;3792945;77;21004;-75
2020/12/02 10:38:35;;;;;;;53.10;23.30;;;;;;;-2.57;78.88;99304.32;3802645;76;20960;-74
2020/12/02 10:43:58;;;;;;;44.60;20.83;;;;;;;-2.51;78.89;99294.88;3715085;79;21036;-74
2020/12/02 10:49:30;;;;;;;51.43;22.10;;;;;;;-2.39;79.10;99292.53;3787778;77;21008;-73
2020/12/02 10:54:35;;;;;;;54.07;24.57;;;;;;;-2.31;78.61;99294.53;3793064;76;20941;-75
2020/12/02 10:59:37;;;;;;;45.53;22.27;;;;;;;-2.37;78.33;99289.23;3780794;76;21494;-75
2020/12/02 11:04:40;;;;;;;56.87;25.80;;;;;;;-2.32;78.59;99281.57;3795336;76;21318;-75
2020/12/02 11:09:56;;;;;;;49.23;23.17;;;;;;;-2.25;78.55;99280.62;3681495;78;21031;-74
2020/12/02 11:15:11;;;;;;;55.93;24.97;;;;;;;-2.18;78.32;99278.53;3697889;79;21484;-76
2020/12/02 11:20:20;;;;;;;46.63;23.83;;;;;;;-2.16;78.41;99262.11;3639698;79;21036;-75
2020/12/02 11:25:47;;;;;;;60.63;26.70;;;;;;;-2.19;78.37;99251.48;3681571;79;20976;-75
2020/12/02 11:30:49;;;;;;;48.50;24.50;;;;;;;-2.09;78.76;99238.01;3687789;79;21031;-75
2020/12/02 11:36:00;;;;;;;35.13;16.47;;;;;;;-2.00;78.32;99228.97;3695344;79;21039;-75
2020/12/02 11:41:13;;;;;;;33.97;16.70;;;;;;;-1.96;77.86;99221.02;3698639;79;21047;-75
2020/12/02 11:46:18;;;;;;;38.30;16.67;;;;;;;-1.87;77.96;99211.15;3694085;79;21040;-77
2020/12/02 11:51:46;;;;;;;43.73;19.60;;;;;;;-1.83;77.83;99208.92;3675516;79;20973;-76
2020/12/02 11:56:53;;;;;;;52.93;23.73;;;;;;;-1.79;77.64;99199.16;3717082;78;21032;-76
2020/12/02 12:02:12;;;;;;;47.83;22.83;;;;;;;-1.85;77.57;99187.31;3724980;78;21012;-77
2020/12/02 12:07:39;;;;;;;43.70;21.45;;;;;;;-1.84;77.70;99183.69;3666653;79;24293;-76
2020/12/02 12:13:09;;;;;;;42.87;21.47;;;;;;;-1.89;77.46;99184.26;3690207;80;20952;-75
2020/12/02 12:18:26;;;;;;;38.73;18.02;;;;;;;-1.94;77.54;99170.41;3687444;78;24933;-75
2020/12/02 12:23:52;;;;;;;37.23;16.67;;;;;;;-1.97;77.32;99168.19;3666731;78;21028;-75
2020/12/02 12:28:55;;;;;;;37.30;18.23;;;;;;;-2.02;77.38;99160.08;3689703;78;21316;-76
2020/12/02 12:34:03;;;;;;;40.30;20.00;;;;;;;-2.00;77.63;99155.45;3703437;80;20976;-75
2020/12/02 12:39:19;;;;;;;34.30;16.23;;;;;;;-1.99;77.63;99142.61;3690972;79;20946;-76
2020/12/02 12:44:34;;;;;;;38.07;19.53;;;;;;;-2.01;77.41;99152.52;3670374;80;21077;-77
2020/12/02 12:49:39;;;;;;;34.57;16.80;;;;;;;-2.03;77.44;99150.58;3737691;78;21051;-76
2020/12/02 12:54:42;;;;;;;36.40;17.93;;;;;;;-2.04;77.39;99158.17;3706280;78;20967;-75
2020/12/02 12:59:47;;;;;;;42.27;19.90;;;;;;;-2.07;77.17;99157.22;3710594;78;21007;-76
2020/12/02 13:04:49;;;;;;;40.63;19.77;;;;;;;-2.10;77.18;99153.69;3726504;78;20997;-76
2020/12/02 13:10:35;;;;;;;38.80;19.07;;;;;;;-2.10;77.52;99151.06;3716222;78;21004;-76
2020/12/02 13:15:50;;;;;;;46.10;22.77;;;;;;;-2.02;77.61;99138.28;3737983;78;21476;-75
2020/12/02 13:21:16;;;;;;;35.37;15.60;;;;;;;-1.99;77.57;99144.44;3713188;78;20966;-76
2020/12/02 13:26:24;;;;;;;37.03;18.27;;;;;;;-1.94;77.22;99138.91;3713964;78;21066;-75
2020/12/02 13:31:34;;;;;;;36.53;16.30;;;;;;;-2.03;77.17;99134.83;3706237;80;21407;-76
2020/12/02 13:36:38;;;;;;;31.65;15.65;;;;;;;-2.14;77.12;99115.22;3683030;79;21032;-76
2020/12/02 13:41:52;;;;;;;41.73;20.30;;;;;;;-2.20;77.32;99119.93;3734238;78;21042;-76
2020/12/02 13:46:54;;;;;;;37.90;17.77;;;;;;;-2.29;77.12;99123.75;3729074;78;20973;-76
2020/12/02 13:52:14;;;;;;;35.77;15.57;;;;;;;-2.39;77.35;99107.05;3641827;79;20982;-75
2020/12/02 13:57:52;;;;;;;38.70;17.43;;;;;;;-2.47;77.33;99115.89;3710684;78;20988;-77
2020/12/02 14:03:31;;;;;;;35.80;16.27;;;;;;;-2.53;77.63;99106.67;3736994;78;21015;-76
2020/12/02 14:08:33;;;;;;;37.97;18.80;;;;;;;-2.56;77.92;99106.58;3746417;78;21080;-76
2020/12/02 14:13:36;;;;;;;40.60;18.43;;;;;;;-2.58;78.03;99108.06;3690807;78;21504;-76
2020/12/02 14:18:40;;;;;;;42.47;19.47;;;;;;;-2.53;78.18;99092.23;3705873;78;21028;-76
2020/12/02 14:23:42;;;;;;;40.57;19.63;;;;;;;-2.51;78.19;99091.56;3714918;79;21046;-75
2020/12/02 14:28:45;;;;;;;46.70;22.37;;;;;;;-2.51;78.26;99083.69;3790496;77;20996;-75
2020/12/02 14:33:47;;;;;;;43.30;21.27;;;;;;;-2.44;78.26;99071.40;3791608;77;21024;-75
2020/12/02 14:38:49;;;;;;;42.33;20.13;;;;;;;-2.43;78.06;99080.90;3800920;77;20995;-76
2020/12/02 14:43:51;;;;;;;47.50;20.97;;;;;;;-2.42;78.16;99088.57;3800404;76;20985;-75
2020/12/02 14:48:53;;;;;;;50.30;22.83;;;;;;;-2.42;78.26;99083.80;3804697;76;21001;-76
2020/12/02 14:53:55;;;;;;;40.20;18.57;;;;;;;-2.43;78.28;99077.77;3846048;76;21027;-76
2020/12/02 14:59:18;;;;;;;50.30;23.83;;;;;;;-2.42;78.40;99078.56;3723107;78;21031;-76
2020/12/02 15:04:24;;;;;;;47.43;22.87;;;;;;;-2.43;78.25;99061.22;3718442;79;21011;-79
2020/12/02 15:10:07;;;;;;;40.10;19.17;;;;;;;-2.46;78.38;99054.55;3687309;80;21171;-79
2020/12/02 15:15:15;;;;;;;42.67;19.23;;;;;;;-2.48;78.40;99060.48;3682597;80;21055;-79
2020/12/02 15:20:24;;;;;;;37.60;16.77;;;;;;;-2.49;78.65;99054.12;3768482;78;21028;-79
2020/12/02 15:25:26;;;;;;;43.33;20.40;;;;;;;-2.50;78.73;99048.08;3686091;80;20993;-79
2020/12/02 15:30:36;;;;;;;35.83;19.00;;;;;;;-2.53;78.65;99050.27;3769208;78;21597;-78
2020/12/02 15:35:50;;;;;;;55.60;25.27;;;;;;;-2.53;78.60;99049.78;3799735;77;20945;-78
2020/12/02 15:41:13;;;;;;;42.33;20.37;;;;;;;-2.55;78.42;99045.22;3765573;78;21018;-78
2020/12/02 15:46:34;;;;;;;44.63;20.03;;;;;;;-2.59;78.40;99047.92;3773874;78;21027;-78
2020/12/02 15:51:48;;;;;;;48.90;22.53;;;;;;;-2.64;78.47;99041.97;3820975;77;21003;-79
2020/12/02 15:57:05;;;;;;;42.83;20.50;;;;;;;-2.75;78.55;99041.21;3804759;77;20999;-78
2020/12/02 16:02:11;;;;;;;47.03;20.03;;;;;;;-2.82;78.72;99043.80;3778569;78;21531;-77
2020/12/02 16:07:48;;;;;;;42.73;19.23;;;;;;;-2.85;78.78;99032.91;3801108;77;20925;-77
2020/12/02 16:12:55;;;;;;;39.17;17.97;;;;;;;-2.90;78.90;99033.47;3705945;79;21031;-79
2020/12/02 16:17:57;;;;;;;45.37;22.40;;;;;;;-2.93;79.07;99024.17;3827060;77;21034;-79
2020/12/02 16:23:23;;;;;;;42.60;20.50;;;;;;;-2.93;79.09;99022.06;3774645;78;20929;-78
2020/12/02 16:28:32;;;;;;;40.77;18.97;;;;;;;-2.93;79.16;99024.17;3777840;77;20996;-77
2020/12/02 16:33:40;;;;;;;54.33;25.13;;;;;;;-2.89;79.02;99020.67;3785518;77;21459;-80
2020/12/02 16:38:43;;;;;;;48.30;22.73;;;;;;;-2.92;78.86;99023.18;3729188;79;21002;-79
2020/12/02 16:44:07;;;;;;;40.43;18.87;;;;;;;-3.01;78.42;99031.39;3832083;77;21055;-79
2020/12/02 16:49:37;;;;;;;40.03;18.77;;;;;;;-3.06;78.72;99031.16;3839595;77;21012;-78
2020/12/02 16:55:14;;;;;;;44.10;20.10;;;;;;;-3.13;78.71;99033.25;3810164;77;21031;-79
2020/12/02 17:00:32;;;;;;;51.83;24.87;;;;;;;-3.14;78.83;99030.83;3782634;77;20935;-78
2020/12/02 17:05:34;;;;;;;33.73;15.43;;;;;;;-3.12;78.92;99023.56;3777318;78;21031;-78
2020/12/02 17:10:39;;;;;;;39.07;18.07;;;;;;;-3.16;78.69;99024.95;3782508;78;21035;-78
2020/12/02 17:16:16;;;;;;;35.30;15.77;;;;;;;-3.33;78.40;99030.52;3781215;78;21459;-79
2020/12/02 17:21:45;;;;;;;38.37;17.73;;;;;;;-3.46;78.63;99022.55;3826186;77;21442;-79
2020/12/02 17:27:05;;;;;;;38.93;16.90;;;;;;;-3.57;78.87;99023.88;3715073;79;20992;-79
2020/12/02 17:32:18;;;;;;;40.95;18.80;;;;;;;-3.66;78.99;99009.33;3692484;80;21014;-79
2020/12/02 17:37:55;;;;;;;48.13;22.40;;;;;;;-3.66;79.26;99003.58;3784003;77;21418;-78
2020/12/02 17:43:40;;;;;;;43.13;20.23;;;;;;;-3.64;79.25;99002.08;3799085;77;21480;-77
2020/12/02 17:49:19;;;;;;;43.37;19.83;;;;;;;-3.55;80.31;98993.09;3736996;79;21441;-78
2020/12/02 17:54:20;;;;;;;50.60;23.13;;;;;;;-3.51;79.25;98993.50;3802247;77;21016;-78
2020/12/02 17:59:27;;;;;;;43.23;18.57;;;;;;;-3.54;79.36;98989.95;3775906;78;20982;-79
2020/12/02 18:05:11;;;;;;;40.80;18.90;;;;;;;-3.54;79.37;98979.48;3768959;78;21636;-77
2020/12/02 18:10:44;;;;;;;42.90;18.03;;;;;;;-3.59;79.31;98974.03;3798620;77;20947;-77
2020/12/02 18:16:09;;;;;;;40.70;18.83;;;;;;;-3.65;79.40;98986.05;3771879;78;20939;-79
2020/12/02 18:21:57;;;;;;;38.80;18.10;;;;;;;-3.68;79.51;98996.91;3778291;78;21000;-78
2020/12/02 18:27:33;;;;;;;46.73;20.53;;;;;;;-3.75;79.38;98982.45;3736247;79;21303;-79
2020/12/02 18:33:04;;;;;;;35.50;14.67;;;;;;;-3.78;79.60;98978.91;3774287;78;21353;-79
2020/12/02 18:38:52;;;;;;;42.35;17.75;;;;;;;-3.82;79.77;98975.88;3769601;78;20991;-78
2020/12/02 18:44:00;;;;;;;32.53;14.90;;;;;;;-3.82;79.88;98971.95;3851015;76;21016;-80
2020/12/02 18:49:31;;;;;;;40.23;18.63;;;;;;;-3.74;79.96;98971.50;3817113;77;21035;-79
2020/12/02 18:54:33;;;;;;;35.47;15.27;;;;;;;-3.70;79.92;98965.68;3792698;77;21038;-79
2020/12/02 18:59:41;;;;;;;47.60;20.73;;;;;;;-3.69;79.71;98964.69;3770695;78;21028;-79
2020/12/02 19:04:49;;;;;;;48.27;22.73;;;;;;;-3.70;79.76;98956.52;3778379;77;21017;-79
2020/12/02 19:09:51;;;;;;;42.63;17.40;;;;;;;-3.73;79.60;98956.91;3781890;77;20973;-78
2020/12/02 19:15:26;;;;;;;51.53;23.30;;;;;;;-3.74;79.74;98950.55;3710135;79;20990;-79
2020/12/02 19:21:10;;;;;;;43.93;19.43;;;;;;;-3.76;79.88;98944.20;3799108;77;21048;-79
2020/12/02 19:27:02;;;;;;;49.93;21.80;;;;;;;-3.72;79.82;98953.77;3772556;77;21475;-79
2020/12/02 19:32:42;;;;;;;63.10;26.90;;;;;;;-3.69;80.03;98941.13;3771538;78;20957;-79
2020/12/02 19:38:08;;;;;;;51.02;22.98;;;;;;;-3.59;80.05;98934.75;3777020;78;21043;-78
2020/12/02 19:43:43;;;;;;;41.10;20.77;;;;;;;-3.55;79.92;98926.78;3768923;78;20992;-79
2020/12/02 19:48:53;;;;;;;49.03;18.90;;;;;;;-3.55;79.82;98924.17;3826609;77;20976;-79
2020/12/02 19:54:01;;;;;;;;;;;;;;;-3.63;79.84;98907.61;3697840;79;20972;-79
2020/12/02 19:59:35;;;;;;;55.57;22.77;;;;;;;-3.68;79.69;98894.79;3657874;80;20409;-79
2020/12/02 20:04:59;;;;;;;47.40;21.20;;;;;;;-3.75;79.74;98897.88;3778335;78;21016;-79
2020/12/02 20:10:16;;;;;;;38.90;18.33;;;;;;;-3.80;79.88;98895.84;3770477;78;20976;-79
2020/12/02 20:15:56;;;;;;;37.43;16.07;;;;;;;-3.83;79.79;98897.03;3738354;77;21024;-78
2020/12/02 20:21:03;;;;;;;39.80;18.60;;;;;;;-3.89;79.84;98898.28;3702691;79;21036;-79
2020/12/02 20:26:11;;;;;;;44.07;18.43;;;;;;;-3.94;79.72;98905.41;3759536;78;20987;-78
2020/12/02 20:31:16;;;;;;;44.67;20.97;;;;;;;-3.97;79.96;98909.22;3769199;78;20977;-79
2020/12/02 20:36:19;;;;;;;41.73;18.40;;;;;;;-4.00;79.81;98916.14;3797721;77;21055;-78
2020/12/02 20:41:23;;;;;;;41.67;19.53;;;;;;;-3.98;80.16;98912.82;3728194;79;21261;-78
2020/12/02 20:46:39;;;;;;;50.40;23.23;;;;;;;-3.95;80.07;98899.86;3743585;79;21083;-77
2020/12/02 20:51:49;;;;;;;47.67;21.27;;;;;;;-3.92;80.09;98900.78;3606002;80;20993;-77
2020/12/02 20:56:57;;;;;;;65.37;26.67;;;;;;;-3.85;80.11;98895.59;3769278;78;21014;-79
2020/12/02 21:02:03;;;;;;;58.70;26.83;;;;;;;-3.72;80.45;98876.54;3773969;78;20988;-79
2020/12/02 21:07:07;;;;;;;45.23;18.90;;;;;;;-3.65;80.01;98868.21;3771923;78;20984;-79
2020/12/02 21:12:09;;;;;;;53.90;23.50;;;;;;;-3.68;79.77;98870.74;3739016;77;21028;-79
2020/12/02 21:17:31;;;;;;;37.47;17.53;;;;;;;-3.72;79.56;98864.75;3745667;78;21012;-79
2020/12/02 21:22:39;;;;;;;59.00;24.70;;;;;;;-3.70;79.70;98871.42;3770914;78;20961;-79
2020/12/02 21:28:10;;;;;;;45.43;20.83;;;;;;;-3.71;79.68;98863.25;3789890;77;21467;-79
2020/12/02 21:33:32;;;;;;;55.90;24.45;;;;;;;-3.67;79.64;98834.88;3780288;77;21471;-79
2020/12/02 21:38:58;;;;;;;48.33;21.67;;;;;;;-3.66;79.77;98844.36;3805307;77;21314;-79
2020/12/02 21:44:18;;;;;;;56.20;23.93;;;;;;;-3.57;79.84;98863.33;3839266;77;21007;-79
2020/12/02 21:49:36;;;;;;;;;;;;;;;-3.61;79.43;98874.20;3731356;79;21036;-79
2020/12/02 21:55:06;;;;;;;54.50;22.60;;;;;;;-3.57;79.68;98860.20;3681106;80;20117;-79
2020/12/02 22:00:24;;;;;;;;;;;;;;;-3.52;79.63;98879.28;3786138;78;20984;-79
2020/12/02 22:05:38;;;;;;;54.07;22.90;;;;;;;-3.51;79.24;98890.88;3782979;78;20112;-79
2020/12/02 22:10:54;;;;;;;53.13;23.10;;;;;;;-3.54;79.32;98884.72;3761977;78;20971;-79
2020/12/02 22:16:22;;;;;;;38.10;18.47;;;;;;;-3.48;79.67;98862.98;3769374;78;20983;-79
2020/12/02 22:22:08;;;;;;;39.93;16.73;;;;;;;-3.44;79.60;98876.50;3694553;80;20972;-80
2020/12/02 22:27:19;;;;;;;50.17;23.17;;;;;;;-3.39;79.37;98872.78;3772643;78;20981;-78
2020/12/02 22:33:05;;;;;;;54.17;23.33;;;;;;;-3.43;79.01;98872.86;3783573;78;21468;-79
2020/12/02 22:38:40;;;;;;;53.27;22.53;;;;;;;-3.45;79.05;98878.81;3768899;78;21018;-78
2020/12/02 22:43:56;;;;;;;59.80;25.73;;;;;;;-3.42;79.31;98863.20;3817488;77;21389;-79
2020/12/02 22:49:01;;;;;;;55.03;25.57;;;;;;;-3.39;79.33;98862.81;3773930;77;20968;-79
2020/12/02 22:54:04;;;;;;;45.37;21.13;;;;;;;-3.45;78.85;98853.92;3744604;79;20981;-78
2020/12/02 22:59:11;;;;;;;61.13;25.37;;;;;;;-3.49;78.89;98847.45;3641626;80;21060;-77
2020/12/02 23:04:17;;;;;;;49.83;22.90;;;;;;;-3.52;78.93;98841.30;3778603;78;20976;-78
2020/12/02 23:09:29;;;;;;;54.47;22.57;;;;;;;-3.51;78.88;98845.52;3781566;78;21018;-78
2020/12/02 23:14:44;;;;;;;61.07;23.97;;;;;;;-3.56;78.77;98834.33;3797756;76;20984;-78
2020/12/02 23:19:55;;;;;;;66.30;25.83;;;;;;;-3.59;78.85;98811.67;3779075;76;21430;-78
2020/12/02 23:24:58;;;;;;;58.30;25.00;;;;;;;-3.62;78.97;98832.50;3774071;78;21504;-78
2020/12/02 23:30:22;;;;;;;36.47;16.87;;;;;;;-3.62;78.97;98843.77;3828215;77;21004;-78
2020/12/02 23:35:28;;;;;;;64.10;25.87;;;;;;;-3.61;79.04;98834.09;3754860;79;20985;-78
2020/12/02 23:40:30;;;;;;;70.30;27.80;;;;;;;-3.63;79.07;98819.09;3807655;77;21065;-79
2020/12/02 23:45:52;;;;;;;66.07;27.43;;;;;;;-3.62;79.11;98794.02;3780761;78;20981;-79
2020/12/02 23:50:54;;;;;;;64.83;27.67;;;;;;;-3.60;79.22;98784.66;3767345;77;20961;-78